createdAt,value
2018-05-23T00:00:21.379Z,17.00
2018-05-23T00:02:25.783Z,17.00
2018-05-23T00:04:30.958Z,17.10
2018-05-23T00:06:35.587Z,17.00
2018-05-23T00:08:40.783Z,17.00
2018-05-23T00:10:45.257Z,17.00
2018-05-23T00:12:49.399Z,16.70
2018-05-23T00:14:54.602Z,16.80
2018-05-23T00:17:00.079Z,16.80
2018-05-23T00:19:03.857Z,16.70
2018-05-23T00:21:08.299Z,16.80
2018-05-23T00:23:12.715Z,16.70
2018-05-23T00:25:17.148Z,16.70
2018-05-23T00:27:21.574Z,16.40
2018-05-23T00:29:26.003Z,16.50
2018-05-23T00:31:30.446Z,16.30
2018-05-23T00:33:35.626Z,16.50
2018-05-23T00:35:40.052Z,16.50
2018-05-23T00:37:44.687Z,16.60
2018-05-23T00:39:49.119Z,16.70
2018-05-23T00:41:54.306Z,16.60
2018-05-23T00:43:58.754Z,16.60
2018-05-23T00:46:02.850Z,16.60
2018-05-23T00:48:07.271Z,16.70
2018-05-23T00:50:11.745Z,16.40
2018-05-23T00:52:16.331Z,16.40
2018-05-23T00:54:21.523Z,16.30
2018-05-23T00:56:25.968Z,16.30
2018-05-23T00:58:30.391Z,16.30
2018-05-23T01:00:34.492Z,16.30
2018-05-23T01:02:39.693Z,16.40
2018-05-23T01:04:44.842Z,16.30
2018-05-23T01:06:49.275Z,16.40
2018-05-23T01:08:53.699Z,16.30
2018-05-23T01:10:58.143Z,16.30
2018-05-23T01:13:02.574Z,16.20
2018-05-23T01:15:06.331Z,16.20
2018-05-23T01:17:10.778Z,15.90
2018-05-23T01:19:15.214Z,15.90
2018-05-23T01:21:19.631Z,15.80
2018-05-23T01:23:23.730Z,15.90
2018-05-23T01:25:28.150Z,15.90
2018-05-23T01:27:32.747Z,15.90
2018-05-23T01:29:36.909Z,15.90
2018-05-23T01:31:41.330Z,15.90
2018-05-23T01:33:45.779Z,15.90
2018-05-23T01:35:50.211Z,15.80
2018-05-23T01:37:54.943Z,15.90
2018-05-23T01:39:59.124Z,15.90
2018-05-23T01:42:03.223Z,15.90
2018-05-23T01:44:08.135Z,15.70
2018-05-23T01:46:12.680Z,15.70
2018-05-23T01:48:17.104Z,15.70
2018-05-23T01:50:21.245Z,15.80
2018-05-23T01:52:25.070Z,15.80
2018-05-23T01:54:29.211Z,15.70
2018-05-23T01:56:33.640Z,15.80
2018-05-23T01:58:38.095Z,15.80
2018-05-23T02:00:42.523Z,15.80
2018-05-23T02:02:47.051Z,15.80
2018-05-23T02:04:51.571Z,15.80
2018-05-23T02:06:56.733Z,15.70
2018-05-23T02:09:00.818Z,15.70
2018-05-23T02:11:05.731Z,15.70
2018-05-23T02:13:10.147Z,15.60
2018-05-23T02:15:14.244Z,15.50
2018-05-23T02:17:18.682Z,15.40
2018-05-23T02:19:23.101Z,15.40
2018-05-23T02:21:27.518Z,15.50
2018-05-23T02:23:32.166Z,15.50
2018-05-23T02:25:36.602Z,15.40
2018-05-23T02:27:41.798Z,15.30
2018-05-23T02:29:46.227Z,15.30
2018-05-23T02:31:50.646Z,15.10
2018-05-23T02:33:55.071Z,15.20
2018-05-23T02:35:59.515Z,15.20
2018-05-23T02:38:04.366Z,15.20
2018-05-23T02:40:09.728Z,15.10
2018-05-23T02:42:13.938Z,15.10
2018-05-23T02:44:18.522Z,15.20
2018-05-23T02:46:22.950Z,15.10
2018-05-23T02:48:27.390Z,15.10
2018-05-23T02:50:31.812Z,15.00
2018-05-23T02:52:36.766Z,15.00
2018-05-23T02:54:41.189Z,15.00
2018-05-23T02:56:45.606Z,15.10
2018-05-23T02:58:50.055Z,15.00
2018-05-23T03:00:55.431Z,15.00
2018-05-23T03:02:59.870Z,14.90
2018-05-23T03:05:03.543Z,14.90
2018-05-23T03:07:07.862Z,14.90
2018-05-23T03:09:12.014Z,14.90
2018-05-23T03:11:17.234Z,14.80
2018-05-23T03:13:21.682Z,14.80
2018-05-23T03:15:26.112Z,14.80
2018-05-23T03:17:30.530Z,14.80
2018-05-23T03:19:34.982Z,14.70
2018-05-23T03:21:39.406Z,14.70
2018-05-23T03:23:43.827Z,14.70
2018-05-23T03:25:48.325Z,14.70
2018-05-23T03:27:52.721Z,14.60
2018-05-23T03:29:57.146Z,14.60
2018-05-23T03:32:01.262Z,14.60
2018-05-23T03:34:05.609Z,14.70
2018-05-23T03:36:10.039Z,14.60
2018-05-23T03:38:15.242Z,14.70
2018-05-23T03:40:19.714Z,14.60
2018-05-23T03:42:24.086Z,14.70
2018-05-23T03:44:28.511Z,14.70
2018-05-23T03:46:32.932Z,14.70
2018-05-23T03:48:37.382Z,14.70
2018-05-23T03:50:51.499Z,14.80
2018-05-23T03:52:56.689Z,14.80
2018-05-23T03:55:01.131Z,14.80
2018-05-23T03:57:05.082Z,14.80
2018-05-23T03:59:09.508Z,14.90
2018-05-23T04:01:25.019Z,14.80
2018-05-23T04:03:41.051Z,14.80
2018-05-23T04:05:56.375Z,14.80
2018-05-23T04:08:00.570Z,14.90
2018-05-23T04:10:05.777Z,15.00
2018-05-23T04:12:10.198Z,15.00
2018-05-23T04:14:14.643Z,15.00
2018-05-23T04:16:19.069Z,14.80
2018-05-23T04:18:23.689Z,14.90
2018-05-23T04:20:28.124Z,15.00
2018-05-23T04:22:32.543Z,15.10
2018-05-23T04:24:38.484Z,15.10
2018-05-23T04:26:43.102Z,15.10
2018-05-23T04:28:47.536Z,15.30
2018-05-23T04:30:51.974Z,15.40
2018-05-23T04:32:57.402Z,15.40
2018-05-23T04:35:01.896Z,15.40
2018-05-23T04:37:06.498Z,15.30
2018-05-23T04:39:10.964Z,15.20
2018-05-23T04:41:16.367Z,15.40
2018-05-23T04:43:20.814Z,15.40
2018-05-23T04:45:25.257Z,15.50
2018-05-23T04:47:29.691Z,15.50
2018-05-23T04:49:34.123Z,15.50
2018-05-23T04:51:38.751Z,15.50
2018-05-23T04:53:43.183Z,15.70
2018-05-23T04:55:47.610Z,15.80
2018-05-23T04:57:52.046Z,15.70
2018-05-23T04:59:57.234Z,16.00
2018-05-23T05:02:01.886Z,15.90
2018-05-23T05:04:06.339Z,15.90
2018-05-23T05:06:11.723Z,15.60
2018-05-23T05:08:16.194Z,15.60
2018-05-23T05:10:20.798Z,15.70
2018-05-23T05:12:26.202Z,15.80
2018-05-23T05:14:30.651Z,15.80
2018-05-23T05:16:35.844Z,16.00
2018-05-23T05:18:40.280Z,15.90
2018-05-23T05:20:44.718Z,15.90
2018-05-23T05:22:49.920Z,15.80
2018-05-23T05:24:54.418Z,15.70
2018-05-23T05:26:59.002Z,15.80
2018-05-23T05:29:03.869Z,15.60
2018-05-23T05:31:08.293Z,15.70
2018-05-23T05:33:12.418Z,15.80
2018-05-23T05:35:16.849Z,15.80
2018-05-23T05:37:21.274Z,15.80
2018-05-23T05:39:26.478Z,16.20
2018-05-23T05:41:31.114Z,16.20
2018-05-23T05:43:35.542Z,16.30
2018-05-23T05:45:41.098Z,16.30
2018-05-23T05:47:46.289Z,16.40
2018-05-23T05:49:50.728Z,16.40
2018-05-23T05:51:55.173Z,16.50
2018-05-23T05:54:00.371Z,16.50
2018-05-23T05:56:04.806Z,16.50
2018-05-23T05:58:09.032Z,16.60
2018-05-23T06:00:13.455Z,16.60
2018-05-23T06:02:17.904Z,16.60
2018-05-23T06:04:22.331Z,16.70
2018-05-23T06:06:26.775Z,16.70
2018-05-23T06:08:31.234Z,16.70
2018-05-23T06:10:35.382Z,16.80
2018-05-23T06:12:40.145Z,16.90
2018-05-23T06:14:45.369Z,17.10
2018-05-23T06:16:49.797Z,17.10
2018-05-23T06:18:53.952Z,17.30
2018-05-23T06:20:59.217Z,17.40
2018-05-23T06:23:03.646Z,17.40
2018-05-23T06:25:08.071Z,17.50
2018-05-23T06:27:12.384Z,17.60
2018-05-23T06:29:16.808Z,17.60
2018-05-23T06:31:22.202Z,17.70
2018-05-23T06:33:26.643Z,17.70
2018-05-23T06:35:31.114Z,17.70
2018-05-23T06:37:36.266Z,17.90
2018-05-23T06:39:40.726Z,17.90
2018-05-23T06:41:45.145Z,17.90
2018-05-23T06:43:50.350Z,18.00
2018-05-23T06:45:54.798Z,17.90
2018-05-23T06:48:00.092Z,18.10
2018-05-23T06:50:03.948Z,18.00
2018-05-23T06:52:09.242Z,18.30
2018-05-23T06:54:13.694Z,18.20
2018-05-23T06:56:18.935Z,18.30
2018-05-23T06:58:23.354Z,18.30
2018-05-23T07:00:28.557Z,18.50
2018-05-23T07:02:32.992Z,18.50
2018-05-23T07:04:37.415Z,18.60
2018-05-23T07:06:42.622Z,18.80
2018-05-23T07:08:47.051Z,18.80
2018-05-23T07:10:51.487Z,18.80
2018-05-23T07:12:56.690Z,18.90
2018-05-23T07:15:01.120Z,18.90
2018-05-23T07:17:05.562Z,19.00
2018-05-23T07:19:10.750Z,18.90
2018-05-23T07:21:15.173Z,18.90
2018-05-23T07:23:19.612Z,19.00
2018-05-23T07:25:24.049Z,18.90
2018-05-23T07:27:29.246Z,19.10
2018-05-23T07:29:33.667Z,19.00
2018-05-23T07:31:38.131Z,19.10
2018-05-23T07:33:42.714Z,19.20
2018-05-23T07:35:47.159Z,19.30
2018-05-23T07:37:52.340Z,19.50
2018-05-23T07:39:57.027Z,19.40
2018-05-23T07:42:01.602Z,19.50
2018-05-23T07:44:07.539Z,19.50
2018-05-23T07:46:11.967Z,19.50
2018-05-23T07:48:16.598Z,19.50
2018-05-23T07:50:21.797Z,19.50
2018-05-23T07:52:26.419Z,19.50
2018-05-23T07:54:30.858Z,19.50
2018-05-23T07:56:35.284Z,19.50
2018-05-23T07:58:40.215Z,19.60
2018-05-23T08:00:45.407Z,19.60
2018-05-23T08:02:49.830Z,19.60
2018-05-23T08:04:54.656Z,19.70
2018-05-23T08:06:59.041Z,19.70
2018-05-23T08:09:02.930Z,19.80
2018-05-23T08:11:07.095Z,19.90
2018-05-23T08:13:11.515Z,19.90
2018-05-23T08:15:15.967Z,19.90
2018-05-23T08:17:21.361Z,19.90
2018-05-23T08:19:25.792Z,19.90
2018-05-23T08:21:30.224Z,20.00
2018-05-23T08:23:34.667Z,20.10
2018-05-23T08:25:39.083Z,20.10
2018-05-23T08:27:44.298Z,20.20
2018-05-23T08:29:49.546Z,20.20
2018-05-23T08:31:54.129Z,20.20
2018-05-23T08:33:58.562Z,20.20
2018-05-23T08:36:03.184Z,20.20
2018-05-23T08:38:08.326Z,20.30
2018-05-23T08:40:12.750Z,20.20
2018-05-23T08:42:17.938Z,20.20
2018-05-23T08:44:22.371Z,20.20
2018-05-23T08:46:26.813Z,20.40
2018-05-23T08:48:31.995Z,20.60
2018-05-23T08:50:36.425Z,20.50
2018-05-23T08:52:40.599Z,20.50
2018-05-23T08:54:45.030Z,20.50
2018-05-23T08:56:49.461Z,20.50
2018-05-23T08:58:53.902Z,20.60
2018-05-23T09:00:57.995Z,20.50
2018-05-23T09:03:02.513Z,20.60
2018-05-23T09:05:06.992Z,20.60
2018-05-23T09:07:11.657Z,20.60
2018-05-23T09:09:16.274Z,20.80
2018-05-23T09:11:20.362Z,20.80
2018-05-23T09:13:24.777Z,20.70
2018-05-23T09:15:29.230Z,20.70
2018-05-23T09:17:33.654Z,20.80
2018-05-23T09:19:38.090Z,20.80
2018-05-23T09:21:42.902Z,20.80
2018-05-23T09:23:47.337Z,20.90
2018-05-23T09:25:51.781Z,20.90
2018-05-23T09:27:56.206Z,21.00
2018-05-23T09:30:00.648Z,21.10
2018-05-23T09:32:04.734Z,21.20
2018-05-23T09:34:09.190Z,21.20
2018-05-23T09:36:13.626Z,21.20
2018-05-23T09:38:18.057Z,21.20
2018-05-23T09:40:23.275Z,21.30
2018-05-23T09:42:27.698Z,21.30
2018-05-23T09:44:32.894Z,21.40
2018-05-23T09:46:37.321Z,21.40
2018-05-23T09:48:41.759Z,21.30
2018-05-23T09:50:46.182Z,21.30
2018-05-23T09:52:51.430Z,21.60
2018-05-23T09:54:56.628Z,21.80
2018-05-23T09:57:01.257Z,21.70
2018-05-23T09:59:05.873Z,21.80
2018-05-23T10:01:10.294Z,21.80
2018-05-23T10:03:16.233Z,21.90
2018-05-23T10:05:20.670Z,21.90
2018-05-23T10:07:25.868Z,22.10
2018-05-23T10:09:30.300Z,22.10
2018-05-23T10:11:34.726Z,22.10
2018-05-23T10:13:39.354Z,22.10
2018-05-23T10:15:43.779Z,22.10
2018-05-23T10:17:48.209Z,22.20
2018-05-23T10:19:52.830Z,22.10
2018-05-23T10:21:58.025Z,22.00
2018-05-23T10:24:02.460Z,22.00
2018-05-23T10:26:07.648Z,22.00
2018-05-23T10:28:12.065Z,22.00
2018-05-23T10:30:16.650Z,22.00
2018-05-23T10:32:21.063Z,22.00
2018-05-23T10:34:25.491Z,22.10
2018-05-23T10:36:30.694Z,22.10
2018-05-23T10:38:35.127Z,22.10
2018-05-23T10:40:39.579Z,22.20
2018-05-23T10:42:44.027Z,22.30
2018-05-23T10:44:48.462Z,22.40
2018-05-23T10:46:52.902Z,22.40
2018-05-23T10:48:58.122Z,22.60
2018-05-23T10:51:02.578Z,22.60
2018-05-23T10:53:07.002Z,22.70
2018-05-23T10:55:11.099Z,22.70
2018-05-23T10:57:15.846Z,22.80
2018-05-23T10:59:20.395Z,23.00
2018-05-23T11:01:24.814Z,23.00
2018-05-23T11:03:29.274Z,23.10
2018-05-23T11:05:34.509Z,23.30
2018-05-23T11:07:39.098Z,23.20
2018-05-23T11:09:43.534Z,23.20
2018-05-23T11:11:48.726Z,23.20
2018-05-23T11:13:53.145Z,23.20
2018-05-23T11:15:57.582Z,23.10
2018-05-23T11:18:02.060Z,23.20
2018-05-23T11:20:06.498Z,23.10
2018-05-23T11:22:11.118Z,23.30
2018-05-23T11:24:15.562Z,23.30
2018-05-23T11:26:19.990Z,23.40
2018-05-23T11:28:25.178Z,24.00
2018-05-23T11:30:29.635Z,24.00
2018-05-23T11:32:34.062Z,24.30
2018-05-23T11:34:39.353Z,25.00
2018-05-23T11:36:44.711Z,25.60
2018-05-23T11:38:49.150Z,25.60
2018-05-23T11:40:54.362Z,26.30
2018-05-23T11:42:59.740Z,26.30
2018-05-23T11:45:04.276Z,26.90
2018-05-23T11:47:09.483Z,26.80
2018-05-23T11:49:14.452Z,27.30
2018-05-23T11:51:19.415Z,27.60
2018-05-23T11:53:25.236Z,27.80
2018-05-23T11:55:29.837Z,27.80
2018-05-23T11:57:34.262Z,28.20
2018-05-23T11:59:38.703Z,28.50
2018-05-23T12:01:43.182Z,28.80
2018-05-23T12:03:48.554Z,28.50
2018-05-23T12:05:52.987Z,28.50
2018-05-23T12:07:57.449Z,28.60
2018-05-23T12:10:02.765Z,28.20
2018-05-23T12:12:07.958Z,28.50
2018-05-23T12:14:12.412Z,28.50
2018-05-23T12:16:17.404Z,28.70
2018-05-23T12:18:21.830Z,29.20
2018-05-23T12:20:26.262Z,28.90
2018-05-23T12:22:30.678Z,28.50
2018-05-23T12:24:35.133Z,28.60
2018-05-23T12:26:39.554Z,28.00
2018-05-23T12:28:43.650Z,28.30
2018-05-23T12:30:48.850Z,28.60
2018-05-23T12:32:53.286Z,28.60
2018-05-23T12:34:57.726Z,29.40
2018-05-23T12:37:02.921Z,30.20
2018-05-23T12:39:07.011Z,30.10
2018-05-23T12:41:11.759Z,29.80
2018-05-23T12:43:16.197Z,29.40
2018-05-23T12:45:20.815Z,29.40
2018-05-23T12:47:26.018Z,30.20
2018-05-23T12:49:30.466Z,30.10
2018-05-23T12:51:36.587Z,30.40
2018-05-23T12:53:41.009Z,30.40
2018-05-23T12:55:45.463Z,30.10
2018-05-23T12:57:50.667Z,30.50
2018-05-23T12:59:55.098Z,30.50
2018-05-23T13:01:59.275Z,31.10
2018-05-23T13:04:03.664Z,30.80
2018-05-23T13:06:08.077Z,30.60
2018-05-23T13:08:13.061Z,30.90
2018-05-23T13:10:17.709Z,30.30
2018-05-23T13:12:22.951Z,28.30
2018-05-23T13:14:27.554Z,28.30
2018-05-23T13:16:32.518Z,26.80
2018-05-23T13:18:37.179Z,26.40
2018-05-23T13:20:43.141Z,27.90
2018-05-23T13:22:48.909Z,27.70
2018-05-23T13:24:53.882Z,27.60
2018-05-23T13:26:59.003Z,27.80
2018-05-23T13:29:04.134Z,26.80
2018-05-23T13:31:08.557Z,26.80
2018-05-23T13:33:12.734Z,27.10
2018-05-23T13:35:17.719Z,27.40
2018-05-23T13:37:22.702Z,27.80
2018-05-23T13:39:27.719Z,27.90
2018-05-23T13:41:32.690Z,27.60
2018-05-23T13:43:37.116Z,27.20
2018-05-23T13:45:41.210Z,27.30
2018-05-23T13:47:45.644Z,27.90
2018-05-23T13:49:50.061Z,28.20
2018-05-23T13:51:55.256Z,28.80
2018-05-23T13:54:00.236Z,29.00
2018-05-23T13:56:05.669Z,30.10
2018-05-23T13:58:11.749Z,29.10
2018-05-23T14:00:16.746Z,29.10
2018-05-23T14:02:21.731Z,29.30
2018-05-23T14:04:26.724Z,29.70
2018-05-23T14:06:32.468Z,29.60
2018-05-23T14:08:37.176Z,29.60
2018-05-23T14:10:42.166Z,30.00
2018-05-23T14:12:47.141Z,29.90
2018-05-23T14:14:52.319Z,29.50
2018-05-23T14:16:57.292Z,29.80
2018-05-23T14:19:02.484Z,29.90
2018-05-23T14:21:07.674Z,29.70
2018-05-23T14:23:12.200Z,30.00
2018-05-23T14:25:17.134Z,30.10
2018-05-23T14:27:23.095Z,31.20
2018-05-23T14:29:27.530Z,31.10
2018-05-23T14:31:32.525Z,31.20
2018-05-23T14:33:37.506Z,31.80
2018-05-23T14:35:42.920Z,30.90
2018-05-23T14:37:47.342Z,30.90
2018-05-23T14:39:52.314Z,30.80
2018-05-23T14:41:56.982Z,30.60
2018-05-23T14:44:01.973Z,29.90
2018-05-23T14:46:06.941Z,30.20
2018-05-23T14:48:12.695Z,30.40
2018-05-23T14:50:17.689Z,30.30
2018-05-23T14:52:22.682Z,30.50
2018-05-23T14:54:27.666Z,30.20
2018-05-23T14:56:33.429Z,31.00
2018-05-23T14:58:39.668Z,30.60
2018-05-23T15:00:44.615Z,30.70
2018-05-23T15:02:50.362Z,30.50
2018-05-23T15:04:55.751Z,30.50
2018-05-23T15:07:00.738Z,30.90
2018-05-23T15:09:07.107Z,30.70
2018-05-23T15:11:12.841Z,30.10
2018-05-23T15:13:17.830Z,30.10
2018-05-23T15:15:22.810Z,30.50
2018-05-23T15:17:27.461Z,30.90
2018-05-23T15:19:32.538Z,31.60
2018-05-23T15:21:37.161Z,31.30
2018-05-23T15:23:42.931Z,31.00
2018-05-23T15:25:47.901Z,31.00
2018-05-23T15:27:53.106Z,31.30
2018-05-23T15:29:58.079Z,31.40
2018-05-23T15:32:02.508Z,30.50
2018-05-23T15:34:07.494Z,31.00
2018-05-23T15:36:12.546Z,31.30
2018-05-23T15:38:17.219Z,31.40
2018-05-23T15:40:22.220Z,31.00
2018-05-23T15:42:27.194Z,30.10
2018-05-23T15:44:32.183Z,30.50
2018-05-23T15:46:37.174Z,29.60
2018-05-23T15:48:42.369Z,28.20
2018-05-23T15:50:46.798Z,28.20
2018-05-23T15:52:51.242Z,28.10
2018-05-23T15:54:56.425Z,27.40
2018-05-23T15:57:00.893Z,27.30
2018-05-23T15:59:05.188Z,27.20
2018-05-23T16:01:09.804Z,26.90
2018-05-23T16:03:14.230Z,27.40
2018-05-23T16:05:19.422Z,27.40
2018-05-23T16:07:23.879Z,27.30
2018-05-23T16:09:29.189Z,27.60
2018-05-23T16:11:33.762Z,27.60
2018-05-23T16:13:38.237Z,27.70
2018-05-23T16:15:42.337Z,27.60
2018-05-23T16:17:46.764Z,27.30
2018-05-23T16:19:51.256Z,28.00
2018-05-23T16:21:57.323Z,28.50
2018-05-23T16:24:01.738Z,28.90
2018-05-23T16:26:06.375Z,28.90
2018-05-23T16:28:10.807Z,29.90
2018-05-23T16:30:15.236Z,29.30
2018-05-23T16:32:20.426Z,29.00
2018-05-23T16:34:25.112Z,29.00
2018-05-23T16:36:30.483Z,29.00
2018-05-23T16:38:34.911Z,29.00
2018-05-23T16:40:39.334Z,29.20
2018-05-23T16:42:43.758Z,29.00
2018-05-23T16:44:47.847Z,29.70
2018-05-23T16:46:52.485Z,30.20
2018-05-23T16:48:56.932Z,30.00
2018-05-23T16:51:02.129Z,29.90
2018-05-23T16:53:06.577Z,29.90
2018-05-23T16:55:11.784Z,29.40
2018-05-23T16:57:16.203Z,29.50
2018-05-23T16:59:20.653Z,29.70
2018-05-23T17:01:25.858Z,29.90
2018-05-23T17:03:30.295Z,29.90
2018-05-23T17:05:34.902Z,29.50
2018-05-23T17:07:39.325Z,29.60
2018-05-23T17:09:44.753Z,29.60
2018-05-23T17:11:48.850Z,29.50
2018-05-23T17:13:53.759Z,29.10
2018-05-23T17:15:58.245Z,29.10
2018-05-23T17:18:02.678Z,29.40
2018-05-23T17:20:07.106Z,29.40
2018-05-23T17:22:11.547Z,28.20
2018-05-23T17:24:15.991Z,28.50
2018-05-23T17:26:20.595Z,28.20
2018-05-23T17:28:25.031Z,28.70
2018-05-23T17:30:29.511Z,28.70
2018-05-23T17:32:35.257Z,28.80
2018-05-23T17:34:39.672Z,28.00
2018-05-23T17:36:44.311Z,27.00
2018-05-23T17:38:48.734Z,26.80
2018-05-23T17:40:53.234Z,27.10
2018-05-23T17:42:57.690Z,27.80
2018-05-23T17:45:02.897Z,27.70
2018-05-23T17:47:07.322Z,27.70
2018-05-23T17:49:12.132Z,27.50
2018-05-23T17:51:16.534Z,27.30
2018-05-23T17:53:20.958Z,27.70
2018-05-23T17:55:25.384Z,28.10
2018-05-23T17:57:29.828Z,28.70
2018-05-23T17:59:33.983Z,28.10
2018-05-23T18:01:38.427Z,27.70
2018-05-23T18:03:42.859Z,27.80
2018-05-23T18:05:47.503Z,27.30
2018-05-23T18:07:51.651Z,27.80
2018-05-23T18:09:56.066Z,27.20
2018-05-23T18:12:00.237Z,27.50
2018-05-23T18:14:05.429Z,26.90
2018-05-23T18:16:15.207Z,26.80
2018-05-23T18:18:26.027Z,26.80
2018-05-23T18:20:30.490Z,27.10
2018-05-23T18:22:35.070Z,27.30
2018-05-23T18:24:39.524Z,26.70
2018-05-23T18:26:44.725Z,26.80
2018-05-23T18:28:49.638Z,26.50
2018-05-23T18:30:54.094Z,26.50
2018-05-23T18:32:58.518Z,26.30
2018-05-23T18:35:03.371Z,26.20
2018-05-23T18:37:08.154Z,26.20
2018-05-23T18:39:12.579Z,25.80
2018-05-23T18:41:17.023Z,25.50
2018-05-23T18:43:21.719Z,24.90
2018-05-23T18:45:26.018Z,24.70
2018-05-23T18:47:30.930Z,24.30
2018-05-23T18:49:35.388Z,24.20
2018-05-23T18:51:40.587Z,24.40
2018-05-23T18:53:45.039Z,24.40
2018-05-23T18:55:50.243Z,24.50
2018-05-23T18:57:54.706Z,24.50
2018-05-23T18:59:59.127Z,24.30
2018-05-23T19:02:03.558Z,24.20
2018-05-23T19:04:08.001Z,24.00
2018-05-23T19:06:12.432Z,24.20
2018-05-23T19:08:16.893Z,24.20
2018-05-23T19:10:22.099Z,23.40
2018-05-23T19:12:26.524Z,23.40
2018-05-23T19:14:30.949Z,23.00
2018-05-23T19:16:36.538Z,22.60
2018-05-23T19:18:40.926Z,22.60
2018-05-23T19:20:45.355Z,22.50
2018-05-23T19:22:49.803Z,22.50
2018-05-23T19:24:54.247Z,22.30
2018-05-23T19:26:58.678Z,22.10
2018-05-23T19:29:03.546Z,21.60
2018-05-23T19:31:07.997Z,21.50
2018-05-23T19:33:12.427Z,21.50
2018-05-23T19:35:16.901Z,21.40
2018-05-23T19:37:21.387Z,21.20
2018-05-23T19:39:25.810Z,21.10
2018-05-23T19:41:30.248Z,21.10
2018-05-23T19:43:34.683Z,21.10
2018-05-23T19:45:39.120Z,21.00
2018-05-23T19:47:44.071Z,21.40
2018-05-23T19:49:49.269Z,21.40
2018-05-23T19:51:54.276Z,21.20
2018-05-23T19:53:58.946Z,21.20
2018-05-23T19:56:04.139Z,21.20
2018-05-23T19:58:08.294Z,21.20
2018-05-23T20:00:13.154Z,20.80
2018-05-23T20:02:17.587Z,20.80
2018-05-23T20:04:22.312Z,20.70
2018-05-23T20:06:26.743Z,20.70
2018-05-23T20:08:31.164Z,20.50
2018-05-23T20:10:35.315Z,20.30
2018-05-23T20:12:40.505Z,20.30
2018-05-23T20:14:45.218Z,20.30
2018-05-23T20:16:49.880Z,20.30
2018-05-23T20:18:54.043Z,20.20
2018-05-23T20:20:58.478Z,20.00
2018-05-23T20:23:02.926Z,20.00
2018-05-23T20:25:07.070Z,19.90
2018-05-23T20:27:11.506Z,19.80
2018-05-23T20:29:15.989Z,19.80
2018-05-23T20:31:20.339Z,19.70
2018-05-23T20:33:24.485Z,19.60
2018-05-23T20:35:28.959Z,19.60
2018-05-23T20:37:33.566Z,19.40
2018-05-23T20:39:37.713Z,19.40
2018-05-23T20:41:42.629Z,19.30
2018-05-23T20:43:47.148Z,19.30
2018-05-23T20:45:51.280Z,19.40
2018-05-23T20:47:56.204Z,19.30
2018-05-23T20:50:01.129Z,19.30
2018-05-23T20:52:06.047Z,19.20
2018-05-23T20:54:10.511Z,19.20
2018-05-23T20:56:15.695Z,19.00
2018-05-23T20:58:20.092Z,19.00
2018-05-23T21:00:25.549Z,19.10
2018-05-23T21:02:29.675Z,19.10
2018-05-23T21:04:33.822Z,19.10
2018-05-23T21:06:38.027Z,19.00
2018-05-23T21:08:41.861Z,19.00
2018-05-23T21:10:46.008Z,19.00
2018-05-23T21:12:50.183Z,19.10
2018-05-23T21:14:54.332Z,18.90
2018-05-23T21:16:59.247Z,18.90
2018-05-23T21:19:03.398Z,18.90
2018-05-23T21:21:08.500Z,18.80
2018-05-23T21:23:13.437Z,18.70
2018-05-23T21:25:18.378Z,18.70
2018-05-23T21:27:23.370Z,18.60
2018-05-23T21:29:27.486Z,18.60
2018-05-23T21:31:31.658Z,18.60
2018-05-23T21:33:35.819Z,18.60
2018-05-23T21:35:43.370Z,18.50
2018-05-23T21:37:47.794Z,18.50
2018-05-23T21:39:51.938Z,18.40
2018-05-23T21:41:56.850Z,18.40
2018-05-23T21:44:01.025Z,18.30
2018-05-23T21:46:04.864Z,18.40
2018-05-23T21:48:09.198Z,18.40
2018-05-23T21:50:14.150Z,18.10
2018-05-23T21:52:18.300Z,18.10
2018-05-23T21:54:22.446Z,18.00
2018-05-23T21:56:26.890Z,18.00
2018-05-23T21:58:32.088Z,17.90
2018-05-23T22:00:36.219Z,17.80
2018-05-23T22:02:41.366Z,17.80
2018-05-23T22:04:45.526Z,17.80
2018-05-23T22:06:49.943Z,17.70
2018-05-23T22:08:54.154Z,17.70
2018-05-23T22:10:59.307Z,17.70
2018-05-23T22:13:04.218Z,17.60
2018-05-23T22:15:08.386Z,17.60
2018-05-23T22:17:12.233Z,17.50
2018-05-23T22:19:16.393Z,17.60
2018-05-23T22:21:20.554Z,17.50
2018-05-23T22:23:24.702Z,17.70
2018-05-23T22:25:28.881Z,17.50
2018-05-23T22:27:33.570Z,17.40
2018-05-23T22:29:37.721Z,17.40
2018-05-23T22:31:42.158Z,17.20
2018-05-23T22:33:46.307Z,17.20
2018-05-23T22:35:50.744Z,17.00
2018-05-23T22:37:54.899Z,17.10
2018-05-23T22:39:59.051Z,17.10
2018-05-23T22:42:03.206Z,17.00
2018-05-23T22:44:08.154Z,17.10
2018-05-23T22:46:12.299Z,17.00
2018-05-23T22:48:16.125Z,17.00
2018-05-23T22:50:20.306Z,17.00
2018-05-23T22:52:24.464Z,17.00
2018-05-23T22:54:29.086Z,17.00
2018-05-23T22:56:34.019Z,17.00
2018-05-23T22:58:38.725Z,16.80
2018-05-23T23:00:42.539Z,16.80
2018-05-23T23:02:47.165Z,16.80
2018-05-23T23:04:53.122Z,16.70
2018-05-23T23:06:57.547Z,16.70
2018-05-23T23:09:02.010Z,16.80
2018-05-23T23:11:06.162Z,16.70
2018-05-23T23:13:10.594Z,17.10
2018-05-23T23:15:15.312Z,17.30
2018-05-23T23:17:19.934Z,17.20
2018-05-23T23:19:24.367Z,17.30
2018-05-23T23:21:29.569Z,17.20
2018-05-23T23:23:34.035Z,17.20
2018-05-23T23:25:38.459Z,17.30
2018-05-23T23:27:42.969Z,17.30
2018-05-23T23:29:47.541Z,17.20
2018-05-23T23:31:51.965Z,17.00
2018-05-23T23:33:56.399Z,16.80
2018-05-23T23:36:00.865Z,16.60
2018-05-23T23:38:05.495Z,16.50
2018-05-23T23:40:09.919Z,16.30
2018-05-23T23:42:14.357Z,16.30
2018-05-23T23:44:20.325Z,16.20
2018-05-23T23:46:24.733Z,16.20
2018-05-23T23:48:29.159Z,16.10
2018-05-23T23:50:34.364Z,16.10
2018-05-23T23:52:38.804Z,16.00
2018-05-23T23:54:43.247Z,16.00
2018-05-23T23:56:48.638Z,15.80
2018-05-23T23:58:53.060Z,15.80
